sensor_id;sensor_type;location;lat;lon;timestamp;P1;durP1;ratioP1;P2;durP2;ratioP2
72920;SDS011;61064;51.654;5.476;2024-01-06T00:02:14;22.60;;;10.10;;
72920;SDS011;61064;51.654;5.476;2024-01-06T00:04:40;22.97;;;9.80;;
72920;SDS011;61064;51.654;5.476;2024-01-06T00:07:05;22.20;;;9.70;;
72920;SDS011;61064;51.654;5.476;2024-01-06T00:09:30;23.70;;;9.03;;
72920;SDS011;61064;51.654;5.476;2024-01-06T00:11:56;23.17;;;9.00;;
72920;SDS011;61064;51.654;5.476;2024-01-06T00:14:26;21.17;;;9.00;;
72920;SDS011;61064;51.654;5.476;2024-01-06T00:16:52;21.42;;;8.43;;
72920;SDS011;61064;51.654;5.476;2024-01-06T00:19:18;22.33;;;8.60;;
72920;SDS011;61064;51.654;5.476;2024-01-06T00:21:43;22.75;;;8.75;;
72920;SDS011;61064;51.654;5.476;2024-01-06T00:24:08;23.20;;;8.63;;
72920;SDS011;61064;51.654;5.476;2024-01-06T00:26:34;20.37;;;7.63;;
72920;SDS011;61064;51.654;5.476;2024-01-06T00:28:59;21.93;;;9.17;;
72920;SDS011;61064;51.654;5.476;2024-01-06T00:31:24;22.93;;;8.83;;
72920;SDS011;61064;51.654;5.476;2024-01-06T00:33:50;20.63;;;8.50;;
72920;SDS011;61064;51.654;5.476;2024-01-06T00:36:15;21.53;;;8.93;;
72920;SDS011;61064;51.654;5.476;2024-01-06T00:38:40;22.20;;;8.57;;
72920;SDS011;61064;51.654;5.476;2024-01-06T00:41:06;19.33;;;8.00;;
72920;SDS011;61064;51.654;5.476;2024-01-06T00:43:31;22.33;;;8.53;;
72920;SDS011;61064;51.654;5.476;2024-01-06T00:45:56;22.17;;;8.40;;
72920;SDS011;61064;51.654;5.476;2024-01-06T00:48:22;21.07;;;7.80;;
72920;SDS011;61064;51.654;5.476;2024-01-06T00:50:47;22.47;;;8.33;;
72920;SDS011;61064;51.654;5.476;2024-01-06T00:53:12;21.47;;;8.47;;
72920;SDS011;61064;51.654;5.476;2024-01-06T00:55:38;19.60;;;7.50;;
72920;SDS011;61064;51.654;5.476;2024-01-06T00:58:03;18.27;;;7.20;;
72920;SDS011;61064;51.654;5.476;2024-01-06T01:00:29;18.57;;;7.03;;
72920;SDS011;61064;51.654;5.476;2024-01-06T01:02:54;17.70;;;7.07;;
72920;SDS011;61064;51.654;5.476;2024-01-06T01:05:19;17.33;;;6.67;;
72920;SDS011;61064;51.654;5.476;2024-01-06T01:07:45;16.23;;;6.53;;
72920;SDS011;61064;51.654;5.476;2024-01-06T01:10:10;17.07;;;7.17;;
72920;SDS011;61064;51.654;5.476;2024-01-06T01:12:36;16.87;;;6.70;;
72920;SDS011;61064;51.654;5.476;2024-01-06T01:15:01;17.85;;;7.65;;
72920;SDS011;61064;51.654;5.476;2024-01-06T01:17:27;16.23;;;6.80;;
72920;SDS011;61064;51.654;5.476;2024-01-06T01:19:52;16.27;;;7.10;;
72920;SDS011;61064;51.654;5.476;2024-01-06T01:22:17;17.73;;;7.23;;
72920;SDS011;61064;51.654;5.476;2024-01-06T01:24:42;17.13;;;6.67;;
72920;SDS011;61064;51.654;5.476;2024-01-06T01:27:08;16.80;;;6.80;;
72920;SDS011;61064;51.654;5.476;2024-01-06T01:29:34;16.30;;;6.68;;
72920;SDS011;61064;51.654;5.476;2024-01-06T01:31:59;16.63;;;6.80;;
72920;SDS011;61064;51.654;5.476;2024-01-06T01:34:25;17.25;;;7.15;;
72920;SDS011;61064;51.654;5.476;2024-01-06T01:36:53;16.33;;;7.00;;
72920;SDS011;61064;51.654;5.476;2024-01-06T01:39:18;15.77;;;6.43;;
72920;SDS011;61064;51.654;5.476;2024-01-06T01:41:44;15.68;;;6.30;;
72920;SDS011;61064;51.654;5.476;2024-01-06T01:44:09;14.90;;;6.37;;
72920;SDS011;61064;51.654;5.476;2024-01-06T01:46:34;17.53;;;7.00;;
72920;SDS011;61064;51.654;5.476;2024-01-06T01:49:00;16.57;;;6.77;;
72920;SDS011;61064;51.654;5.476;2024-01-06T01:51:30;16.20;;;6.90;;
72920;SDS011;61064;51.654;5.476;2024-01-06T01:53:57;14.65;;;6.40;;
72920;SDS011;61064;51.654;5.476;2024-01-06T01:56:24;16.40;;;6.53;;
72920;SDS011;61064;51.654;5.476;2024-01-06T01:58:51;21.52;;;6.93;;
72920;SDS011;61064;51.654;5.476;2024-01-06T02:01:17;19.92;;;7.20;;
72920;SDS011;61064;51.654;5.476;2024-01-06T02:03:42;19.03;;;7.03;;
72920;SDS011;61064;51.654;5.476;2024-01-06T02:06:13;16.15;;;6.90;;
72920;SDS011;61064;51.654;5.476;2024-01-06T02:08:38;15.35;;;7.13;;
72920;SDS011;61064;51.654;5.476;2024-01-06T02:11:07;16.90;;;7.13;;
72920;SDS011;61064;51.654;5.476;2024-01-06T02:13:36;15.97;;;6.97;;
72920;SDS011;61064;51.654;5.476;2024-01-06T02:16:02;15.73;;;7.20;;
72920;SDS011;61064;51.654;5.476;2024-01-06T02:18:31;14.95;;;6.60;;
72920;SDS011;61064;51.654;5.476;2024-01-06T02:20:58;14.75;;;6.22;;
72920;SDS011;61064;51.654;5.476;2024-01-06T02:23:25;14.60;;;6.13;;
72920;SDS011;61064;51.654;5.476;2024-01-06T02:25:50;14.68;;;5.35;;
72920;SDS011;61064;51.654;5.476;2024-01-06T02:28:16;14.77;;;5.97;;
72920;SDS011;61064;51.654;5.476;2024-01-06T02:30:41;14.87;;;5.70;;
72920;SDS011;61064;51.654;5.476;2024-01-06T02:33:06;14.50;;;6.00;;
72920;SDS011;61064;51.654;5.476;2024-01-06T02:35:32;13.07;;;5.43;;
72920;SDS011;61064;51.654;5.476;2024-01-06T02:37:57;12.67;;;5.20;;
72920;SDS011;61064;51.654;5.476;2024-01-06T02:40:22;11.83;;;4.93;;
72920;SDS011;61064;51.654;5.476;2024-01-06T02:42:48;12.73;;;5.17;;
72920;SDS011;61064;51.654;5.476;2024-01-06T02:45:13;12.32;;;5.13;;
72920;SDS011;61064;51.654;5.476;2024-01-06T02:47:38;13.10;;;5.33;;
72920;SDS011;61064;51.654;5.476;2024-01-06T02:50:04;12.70;;;5.03;;
72920;SDS011;61064;51.654;5.476;2024-01-06T02:52:30;12.05;;;4.88;;
72920;SDS011;61064;51.654;5.476;2024-01-06T02:54:55;12.00;;;4.80;;
72920;SDS011;61064;51.654;5.476;2024-01-06T02:57:21;12.67;;;5.07;;
72920;SDS011;61064;51.654;5.476;2024-01-06T02:59:46;12.13;;;4.97;;
72920;SDS011;61064;51.654;5.476;2024-01-06T03:02:11;11.93;;;5.30;;
72920;SDS011;61064;51.654;5.476;2024-01-06T03:04:37;11.90;;;5.00;;
72920;SDS011;61064;51.654;5.476;2024-01-06T03:07:02;11.83;;;4.97;;
72920;SDS011;61064;51.654;5.476;2024-01-06T03:09:30;12.23;;;4.75;;
72920;SDS011;61064;51.654;5.476;2024-01-06T03:11:56;13.07;;;4.90;;
72920;SDS011;61064;51.654;5.476;2024-01-06T03:14:21;12.37;;;4.50;;
72920;SDS011;61064;51.654;5.476;2024-01-06T03:16:46;8.82;;;3.75;;
72920;SDS011;61064;51.654;5.476;2024-01-06T03:19:12;11.57;;;4.27;;
72920;SDS011;61064;51.654;5.476;2024-01-06T03:21:37;9.77;;;3.83;;
72920;SDS011;61064;51.654;5.476;2024-01-06T03:24:03;10.97;;;4.20;;
72920;SDS011;61064;51.654;5.476;2024-01-06T03:26:29;10.68;;;4.43;;
72920;SDS011;61064;51.654;5.476;2024-01-06T03:28:55;10.53;;;4.47;;
72920;SDS011;61064;51.654;5.476;2024-01-06T03:31:23;9.40;;;4.00;;
72920;SDS011;61064;51.654;5.476;2024-01-06T03:33:48;9.90;;;4.50;;
72920;SDS011;61064;51.654;5.476;2024-01-06T03:36:14;10.47;;;4.57;;
72920;SDS011;61064;51.654;5.476;2024-01-06T03:38:41;12.45;;;4.68;;
72920;SDS011;61064;51.654;5.476;2024-01-06T03:41:07;10.77;;;4.80;;
72920;SDS011;61064;51.654;5.476;2024-01-06T03:43:32;10.73;;;4.80;;
72920;SDS011;61064;51.654;5.476;2024-01-06T03:45:57;11.17;;;4.90;;
72920;SDS011;61064;51.654;5.476;2024-01-06T03:48:25;11.98;;;5.20;;
72920;SDS011;61064;51.654;5.476;2024-01-06T03:50:50;12.47;;;5.50;;
72920;SDS011;61064;51.654;5.476;2024-01-06T03:53:15;11.43;;;5.47;;
72920;SDS011;61064;51.654;5.476;2024-01-06T03:55:41;12.83;;;5.57;;
72920;SDS011;61064;51.654;5.476;2024-01-06T03:58:06;11.73;;;4.97;;
72920;SDS011;61064;51.654;5.476;2024-01-06T04:00:31;11.47;;;5.53;;
72920;SDS011;61064;51.654;5.476;2024-01-06T04:02:59;12.77;;;6.13;;
72920;SDS011;61064;51.654;5.476;2024-01-06T04:05:25;13.30;;;5.37;;
72920;SDS011;61064;51.654;5.476;2024-01-06T04:07:50;11.47;;;5.23;;
72920;SDS011;61064;51.654;5.476;2024-01-06T04:10:15;12.23;;;5.53;;
72920;SDS011;61064;51.654;5.476;2024-01-06T04:12:41;11.13;;;5.37;;
72920;SDS011;61064;51.654;5.476;2024-01-06T04:15:06;12.23;;;5.57;;
72920;SDS011;61064;51.654;5.476;2024-01-06T04:17:32;12.18;;;5.82;;
72920;SDS011;61064;51.654;5.476;2024-01-06T04:19:58;11.90;;;5.40;;
72920;SDS011;61064;51.654;5.476;2024-01-06T04:22:23;12.10;;;5.28;;
72920;SDS011;61064;51.654;5.476;2024-01-06T04:24:49;12.73;;;5.50;;
72920;SDS011;61064;51.654;5.476;2024-01-06T04:27:14;13.17;;;5.97;;
72920;SDS011;61064;51.654;5.476;2024-01-06T04:29:42;12.43;;;5.35;;
72920;SDS011;61064;51.654;5.476;2024-01-06T04:32:08;13.00;;;5.43;;
72920;SDS011;61064;51.654;5.476;2024-01-06T04:34:33;14.10;;;5.80;;
72920;SDS011;61064;51.654;5.476;2024-01-06T04:36:58;13.40;;;5.30;;
72920;SDS011;61064;51.654;5.476;2024-01-06T04:39:24;13.80;;;5.47;;
72920;SDS011;61064;51.654;5.476;2024-01-06T04:41:49;12.73;;;5.80;;
72920;SDS011;61064;51.654;5.476;2024-01-06T04:44:15;12.83;;;5.63;;
72920;SDS011;61064;51.654;5.476;2024-01-06T04:46:40;12.88;;;5.22;;
72920;SDS011;61064;51.654;5.476;2024-01-06T04:49:05;12.90;;;5.43;;
72920;SDS011;61064;51.654;5.476;2024-01-06T04:51:31;12.33;;;5.00;;
72920;SDS011;61064;51.654;5.476;2024-01-06T04:53:56;11.53;;;5.57;;
72920;SDS011;61064;51.654;5.476;2024-01-06T04:56:21;12.23;;;4.73;;
72920;SDS011;61064;51.654;5.476;2024-01-06T04:58:50;14.68;;;5.50;;
72920;SDS011;61064;51.654;5.476;2024-01-06T05:01:15;14.47;;;5.57;;
72920;SDS011;61064;51.654;5.476;2024-01-06T05:03:40;13.87;;;5.60;;
72920;SDS011;61064;51.654;5.476;2024-01-06T05:06:06;11.70;;;5.23;;
72920;SDS011;61064;51.654;5.476;2024-01-06T05:08:31;13.50;;;5.37;;
72920;SDS011;61064;51.654;5.476;2024-01-06T05:10:56;12.77;;;5.30;;
72920;SDS011;61064;51.654;5.476;2024-01-06T05:13:22;12.27;;;5.40;;
72920;SDS011;61064;51.654;5.476;2024-01-06T05:15:47;12.90;;;5.50;;
72920;SDS011;61064;51.654;5.476;2024-01-06T05:18:13;12.17;;;5.07;;
72920;SDS011;61064;51.654;5.476;2024-01-06T05:20:38;13.43;;;5.18;;
72920;SDS011;61064;51.654;5.476;2024-01-06T05:23:05;11.57;;;4.80;;
72920;SDS011;61064;51.654;5.476;2024-01-06T05:25:31;11.60;;;5.07;;
72920;SDS011;61064;51.654;5.476;2024-01-06T05:27:56;12.00;;;5.13;;
72920;SDS011;61064;51.654;5.476;2024-01-06T05:30:21;11.93;;;5.10;;
72920;SDS011;61064;51.654;5.476;2024-01-06T05:32:47;11.67;;;4.77;;
72920;SDS011;61064;51.654;5.476;2024-01-06T05:35:12;12.57;;;5.43;;
72920;SDS011;61064;51.654;5.476;2024-01-06T05:37:37;12.13;;;4.90;;
72920;SDS011;61064;51.654;5.476;2024-01-06T05:40:03;15.40;;;4.80;;
72920;SDS011;61064;51.654;5.476;2024-01-06T05:42:29;12.07;;;5.13;;
72920;SDS011;61064;51.654;5.476;2024-01-06T05:44:55;12.10;;;5.00;;
72920;SDS011;61064;51.654;5.476;2024-01-06T05:47:20;11.33;;;4.73;;
72920;SDS011;61064;51.654;5.476;2024-01-06T05:49:45;12.25;;;5.10;;
72920;SDS011;61064;51.654;5.476;2024-01-06T05:52:11;10.97;;;4.73;;
72920;SDS011;61064;51.654;5.476;2024-01-06T05:54:39;12.07;;;4.83;;
72920;SDS011;61064;51.654;5.476;2024-01-06T05:57:06;10.77;;;4.47;;
72920;SDS011;61064;51.654;5.476;2024-01-06T05:59:34;11.07;;;4.83;;
72920;SDS011;61064;51.654;5.476;2024-01-06T06:02:00;11.35;;;4.45;;
72920;SDS011;61064;51.654;5.476;2024-01-06T06:04:25;12.17;;;4.43;;
72920;SDS011;61064;51.654;5.476;2024-01-06T06:06:50;11.13;;;4.50;;
72920;SDS011;61064;51.654;5.476;2024-01-06T06:09:16;11.05;;;4.43;;
72920;SDS011;61064;51.654;5.476;2024-01-06T06:11:41;11.23;;;4.43;;
72920;SDS011;61064;51.654;5.476;2024-01-06T06:14:07;10.85;;;3.85;;
72920;SDS011;61064;51.654;5.476;2024-01-06T06:16:33;12.87;;;4.53;;
72920;SDS011;61064;51.654;5.476;2024-01-06T06:18:58;11.00;;;4.23;;
72920;SDS011;61064;51.654;5.476;2024-01-06T06:21:23;11.43;;;4.90;;
72920;SDS011;61064;51.654;5.476;2024-01-06T06:23:49;12.73;;;4.60;;
72920;SDS011;61064;51.654;5.476;2024-01-06T06:26:15;11.20;;;4.10;;
72920;SDS011;61064;51.654;5.476;2024-01-06T06:28:41;13.93;;;5.65;;
72920;SDS011;61064;51.654;5.476;2024-01-06T06:31:06;11.47;;;4.90;;
72920;SDS011;61064;51.654;5.476;2024-01-06T06:33:32;10.67;;;4.43;;
72920;SDS011;61064;51.654;5.476;2024-01-06T06:35:58;12.47;;;4.70;;
72920;SDS011;61064;51.654;5.476;2024-01-06T06:38:25;12.43;;;5.17;;
72920;SDS011;61064;51.654;5.476;2024-01-06T06:40:53;11.68;;;4.68;;
72920;SDS011;61064;51.654;5.476;2024-01-06T06:43:19;12.93;;;5.40;;
72920;SDS011;61064;51.654;5.476;2024-01-06T06:45:44;11.67;;;5.13;;
72920;SDS011;61064;51.654;5.476;2024-01-06T06:48:09;14.10;;;5.10;;
72920;SDS011;61064;51.654;5.476;2024-01-06T06:50:35;14.27;;;5.57;;
72920;SDS011;61064;51.654;5.476;2024-01-06T06:53:01;15.40;;;5.37;;
72920;SDS011;61064;51.654;5.476;2024-01-06T06:55:26;13.63;;;5.20;;
72920;SDS011;61064;51.654;5.476;2024-01-06T06:57:52;13.68;;;5.28;;
72920;SDS011;61064;51.654;5.476;2024-01-06T07:00:18;12.40;;;5.30;;
72920;SDS011;61064;51.654;5.476;2024-01-06T07:02:43;14.90;;;5.77;;
72920;SDS011;61064;51.654;5.476;2024-01-06T07:05:09;11.47;;;5.00;;
72920;SDS011;61064;51.654;5.476;2024-01-06T07:07:34;13.20;;;5.53;;
72920;SDS011;61064;51.654;5.476;2024-01-06T07:10:03;14.73;;;5.00;;
72920;SDS011;61064;51.654;5.476;2024-01-06T07:12:32;13.80;;;5.50;;
72920;SDS011;61064;51.654;5.476;2024-01-06T07:14:57;17.33;;;6.00;;
72920;SDS011;61064;51.654;5.476;2024-01-06T07:17:25;14.68;;;5.95;;
72920;SDS011;61064;51.654;5.476;2024-01-06T07:19:51;15.70;;;5.80;;
72920;SDS011;61064;51.654;5.476;2024-01-06T07:22:16;13.73;;;5.50;;
72920;SDS011;61064;51.654;5.476;2024-01-06T07:24:43;14.25;;;5.57;;
72920;SDS011;61064;51.654;5.476;2024-01-06T07:27:08;15.07;;;6.37;;
72920;SDS011;61064;51.654;5.476;2024-01-06T07:29:34;15.05;;;6.32;;
72920;SDS011;61064;51.654;5.476;2024-01-06T07:31:59;14.60;;;6.07;;
72920;SDS011;61064;51.654;5.476;2024-01-06T07:34:24;16.13;;;6.10;;
72920;SDS011;61064;51.654;5.476;2024-01-06T07:36:50;13.90;;;6.03;;
72920;SDS011;61064;51.654;5.476;2024-01-06T07:39:15;15.00;;;6.30;;
72920;SDS011;61064;51.654;5.476;2024-01-06T07:41:41;13.37;;;6.30;;
72920;SDS011;61064;51.654;5.476;2024-01-06T07:44:07;13.35;;;5.97;;
72920;SDS011;61064;51.654;5.476;2024-01-06T07:46:32;13.97;;;5.93;;
72920;SDS011;61064;51.654;5.476;2024-01-06T07:49:04;13.03;;;5.60;;
72920;SDS011;61064;51.654;5.476;2024-01-06T07:51:29;13.18;;;5.35;;
72920;SDS011;61064;51.654;5.476;2024-01-06T07:53:55;13.87;;;6.03;;
72920;SDS011;61064;51.654;5.476;2024-01-06T07:56:23;14.98;;;6.53;;
72920;SDS011;61064;51.654;5.476;2024-01-06T07:58:49;15.43;;;6.43;;
72920;SDS011;61064;51.654;5.476;2024-01-06T08:01:14;17.63;;;6.10;;
72920;SDS011;61064;51.654;5.476;2024-01-06T08:03:39;15.10;;;5.97;;
72920;SDS011;61064;51.654;5.476;2024-01-06T08:06:05;17.97;;;6.17;;
72920;SDS011;61064;51.654;5.476;2024-01-06T08:08:31;16.48;;;6.30;;
72920;SDS011;61064;51.654;5.476;2024-01-06T08:10:56;18.53;;;6.60;;
72920;SDS011;61064;51.654;5.476;2024-01-06T08:13:22;17.53;;;6.40;;
72920;SDS011;61064;51.654;5.476;2024-01-06T08:15:47;15.27;;;6.40;;
72920;SDS011;61064;51.654;5.476;2024-01-06T08:18:13;14.53;;;6.33;;
72920;SDS011;61064;51.654;5.476;2024-01-06T08:20:38;12.67;;;5.50;;
72920;SDS011;61064;51.654;5.476;2024-01-06T08:23:03;15.93;;;7.10;;
72920;SDS011;61064;51.654;5.476;2024-01-06T08:25:29;14.53;;;6.23;;
72920;SDS011;61064;51.654;5.476;2024-01-06T08:27:54;14.23;;;6.00;;
72920;SDS011;61064;51.654;5.476;2024-01-06T08:30:20;16.67;;;5.83;;
72920;SDS011;61064;51.654;5.476;2024-01-06T08:32:45;14.83;;;5.30;;
72920;SDS011;61064;51.654;5.476;2024-01-06T08:35:10;13.87;;;5.87;;
72920;SDS011;61064;51.654;5.476;2024-01-06T08:37:36;18.65;;;7.05;;
72920;SDS011;61064;51.654;5.476;2024-01-06T08:40:01;17.60;;;7.50;;
72920;SDS011;61064;51.654;5.476;2024-01-06T08:42:28;14.07;;;6.07;;
72920;SDS011;61064;51.654;5.476;2024-01-06T08:44:53;15.95;;;6.80;;
72920;SDS011;61064;51.654;5.476;2024-01-06T08:47:22;15.50;;;6.20;;
72920;SDS011;61064;51.654;5.476;2024-01-06T08:49:47;15.50;;;5.87;;
72920;SDS011;61064;51.654;5.476;2024-01-06T08:52:12;14.50;;;5.88;;
72920;SDS011;61064;51.654;5.476;2024-01-06T08:54:38;15.03;;;6.10;;
72920;SDS011;61064;51.654;5.476;2024-01-06T08:57:03;14.93;;;6.40;;
72920;SDS011;61064;51.654;5.476;2024-01-06T08:59:28;16.73;;;6.03;;
72920;SDS011;61064;51.654;5.476;2024-01-06T09:01:54;12.97;;;5.77;;
72920;SDS011;61064;51.654;5.476;2024-01-06T09:04:19;14.68;;;5.80;;
72920;SDS011;61064;51.654;5.476;2024-01-06T09:06:45;12.63;;;5.70;;
72920;SDS011;61064;51.654;5.476;2024-01-06T09:09:11;12.95;;;6.15;;
72920;SDS011;61064;51.654;5.476;2024-01-06T09:11:37;14.97;;;6.47;;
72920;SDS011;61064;51.654;5.476;2024-01-06T09:14:03;12.60;;;5.57;;
72920;SDS011;61064;51.654;5.476;2024-01-06T09:16:28;13.73;;;5.72;;
72920;SDS011;61064;51.654;5.476;2024-01-06T09:18:53;12.13;;;5.43;;
72920;SDS011;61064;51.654;5.476;2024-01-06T09:21:19;13.10;;;5.63;;
72920;SDS011;61064;51.654;5.476;2024-01-06T09:23:44;14.50;;;7.00;;
72920;SDS011;61064;51.654;5.476;2024-01-06T09:26:09;13.10;;;6.03;;
72920;SDS011;61064;51.654;5.476;2024-01-06T09:28:35;14.95;;;5.90;;
72920;SDS011;61064;51.654;5.476;2024-01-06T09:31:01;12.93;;;6.10;;
72920;SDS011;61064;51.654;5.476;2024-01-06T09:33:26;13.43;;;6.77;;
72920;SDS011;61064;51.654;5.476;2024-01-06T09:35:51;11.20;;;5.40;;
72920;SDS011;61064;51.654;5.476;2024-01-06T09:38:17;13.75;;;5.85;;
72920;SDS011;61064;51.654;5.476;2024-01-06T09:40:43;10.98;;;5.10;;
72920;SDS011;61064;51.654;5.476;2024-01-06T09:43:09;15.57;;;8.67;;
72920;SDS011;61064;51.654;5.476;2024-01-06T09:45:35;12.85;;;5.88;;
72920;SDS011;61064;51.654;5.476;2024-01-06T09:48:02;17.47;;;8.83;;
72920;SDS011;61064;51.654;5.476;2024-01-06T09:50:34;69.43;;;32.75;;
72920;SDS011;61064;51.654;5.476;2024-01-06T09:53:00;67.10;;;30.55;;
72920;SDS011;61064;51.654;5.476;2024-01-06T09:55:30;16.13;;;7.78;;
72920;SDS011;61064;51.654;5.476;2024-01-06T09:57:56;19.50;;;8.77;;
72920;SDS011;61064;51.654;5.476;2024-01-06T10:00:21;15.77;;;7.43;;
72920;SDS011;61064;51.654;5.476;2024-01-06T10:02:47;13.02;;;5.93;;
72920;SDS011;61064;51.654;5.476;2024-01-06T10:05:14;12.63;;;6.15;;
72920;SDS011;61064;51.654;5.476;2024-01-06T10:07:42;14.10;;;5.83;;
72920;SDS011;61064;51.654;5.476;2024-01-06T10:10:08;15.20;;;6.25;;
72920;SDS011;61064;51.654;5.476;2024-01-06T10:12:36;13.65;;;6.35;;
72920;SDS011;61064;51.654;5.476;2024-01-06T10:15:06;15.38;;;6.50;;
72920;SDS011;61064;51.654;5.476;2024-01-06T10:17:33;14.32;;;7.47;;
72920;SDS011;61064;51.654;5.476;2024-01-06T10:20:01;11.63;;;5.77;;
72920;SDS011;61064;51.654;5.476;2024-01-06T10:22:28;45.60;;;26.50;;
72920;SDS011;61064;51.654;5.476;2024-01-06T10:24:54;30.40;;;17.57;;
72920;SDS011;61064;51.654;5.476;2024-01-06T10:27:20;13.48;;;5.82;;
72920;SDS011;61064;51.654;5.476;2024-01-06T10:29:46;14.27;;;7.40;;
72920;SDS011;61064;51.654;5.476;2024-01-06T10:32:12;12.40;;;5.30;;
72920;SDS011;61064;51.654;5.476;2024-01-06T10:34:37;13.43;;;5.68;;
72920;SDS011;61064;51.654;5.476;2024-01-06T10:37:03;12.37;;;6.00;;
72920;SDS011;61064;51.654;5.476;2024-01-06T10:39:28;15.07;;;5.63;;
72920;SDS011;61064;51.654;5.476;2024-01-06T10:41:54;13.23;;;6.05;;
72920;SDS011;61064;51.654;5.476;2024-01-06T10:44:20;12.27;;;5.30;;
72920;SDS011;61064;51.654;5.476;2024-01-06T10:46:49;13.07;;;5.07;;
72920;SDS011;61064;51.654;5.476;2024-01-06T10:49:15;12.30;;;5.63;;
72920;SDS011;61064;51.654;5.476;2024-01-06T10:51:46;13.07;;;5.32;;
72920;SDS011;61064;51.654;5.476;2024-01-06T10:54:13;13.47;;;4.70;;
72920;SDS011;61064;51.654;5.476;2024-01-06T10:56:41;13.27;;;5.80;;
72920;SDS011;61064;51.654;5.476;2024-01-06T10:59:08;11.52;;;5.28;;
72920;SDS011;61064;51.654;5.476;2024-01-06T11:01:33;11.03;;;5.10;;
72920;SDS011;61064;51.654;5.476;2024-01-06T11:04:00;10.93;;;4.80;;
72920;SDS011;61064;51.654;5.476;2024-01-06T11:06:34;10.23;;;4.65;;
72920;SDS011;61064;51.654;5.476;2024-01-06T11:09:09;10.88;;;5.00;;
72920;SDS011;61064;51.654;5.476;2024-01-06T11:11:39;11.33;;;4.90;;
72920;SDS011;61064;51.654;5.476;2024-01-06T11:14:38;12.02;;;4.90;;
72920;SDS011;61064;51.654;5.476;2024-01-06T11:17:02;13.20;;;4.63;;
72920;SDS011;61064;51.654;5.476;2024-01-06T11:22:18;10.90;;;4.63;;
72920;SDS011;61064;51.654;5.476;2024-01-06T11:24:55;11.95;;;4.80;;
72920;SDS011;61064;51.654;5.476;2024-01-06T11:27:25;11.48;;;4.88;;
72920;SDS011;61064;51.654;5.476;2024-01-06T11:29:55;10.70;;;4.23;;
72920;SDS011;61064;51.654;5.476;2024-01-06T11:32:25;11.88;;;4.68;;
72920;SDS011;61064;51.654;5.476;2024-01-06T11:34:53;10.68;;;4.75;;
72920;SDS011;61064;51.654;5.476;2024-01-06T11:37:37;10.77;;;4.40;;
72920;SDS011;61064;51.654;5.476;2024-01-06T11:42:59;10.17;;;4.47;;
72920;SDS011;61064;51.654;5.476;2024-01-06T11:45:32;11.23;;;5.03;;
72920;SDS011;61064;51.654;5.476;2024-01-06T11:48:02;11.05;;;5.03;;
72920;SDS011;61064;51.654;5.476;2024-01-06T11:50:30;10.80;;;4.60;;
72920;SDS011;61064;51.654;5.476;2024-01-06T11:52:57;10.55;;;4.32;;
72920;SDS011;61064;51.654;5.476;2024-01-06T11:55:22;11.17;;;5.07;;
72920;SDS011;61064;51.654;5.476;2024-01-06T11:57:48;11.20;;;5.17;;
72920;SDS011;61064;51.654;5.476;2024-01-06T12:00:15;13.70;;;5.67;;
72920;SDS011;61064;51.654;5.476;2024-01-06T12:02:43;13.55;;;6.93;;
72920;SDS011;61064;51.654;5.476;2024-01-06T12:05:12;19.40;;;10.40;;
72920;SDS011;61064;51.654;5.476;2024-01-06T12:07:40;14.80;;;7.45;;
72920;SDS011;61064;51.654;5.476;2024-01-06T12:10:07;16.15;;;7.40;;
72920;SDS011;61064;51.654;5.476;2024-01-06T12:12:33;15.97;;;7.07;;
72920;SDS011;61064;51.654;5.476;2024-01-06T12:14:58;12.67;;;6.10;;
72920;SDS011;61064;51.654;5.476;2024-01-06T12:17:27;13.20;;;6.10;;
72920;SDS011;61064;51.654;5.476;2024-01-06T12:19:54;13.52;;;6.40;;
72920;SDS011;61064;51.654;5.476;2024-01-06T12:22:21;13.10;;;5.20;;
72920;SDS011;61064;51.654;5.476;2024-01-06T12:24:49;13.17;;;6.53;;
72920;SDS011;61064;51.654;5.476;2024-01-06T12:27:16;12.38;;;6.32;;
72920;SDS011;61064;51.654;5.476;2024-01-06T12:29:45;13.38;;;6.45;;
72920;SDS011;61064;51.654;5.476;2024-01-06T12:32:10;14.73;;;6.07;;
72920;SDS011;61064;51.654;5.476;2024-01-06T12:34:38;11.20;;;5.47;;
72920;SDS011;61064;51.654;5.476;2024-01-06T12:37:04;12.47;;;5.70;;
72920;SDS011;61064;51.654;5.476;2024-01-06T12:39:31;12.15;;;5.50;;
72920;SDS011;61064;51.654;5.476;2024-01-06T12:41:57;12.75;;;6.38;;
72920;SDS011;61064;51.654;5.476;2024-01-06T12:44:27;13.40;;;6.15;;
72920;SDS011;61064;51.654;5.476;2024-01-06T12:46:53;12.77;;;6.43;;
72920;SDS011;61064;51.654;5.476;2024-01-06T12:49:19;10.57;;;4.60;;
72920;SDS011;61064;51.654;5.476;2024-01-06T12:51:44;8.75;;;3.47;;
72920;SDS011;61064;51.654;5.476;2024-01-06T12:54:10;9.80;;;4.70;;
72920;SDS011;61064;51.654;5.476;2024-01-06T12:56:35;11.10;;;4.70;;
72920;SDS011;61064;51.654;5.476;2024-01-06T12:59:01;11.77;;;5.37;;
72920;SDS011;61064;51.654;5.476;2024-01-06T13:01:26;11.97;;;4.90;;
72920;SDS011;61064;51.654;5.476;2024-01-06T13:03:52;10.43;;;4.60;;
72920;SDS011;61064;51.654;5.476;2024-01-06T13:06:19;11.57;;;5.10;;
72920;SDS011;61064;51.654;5.476;2024-01-06T13:08:44;10.75;;;4.72;;
72920;SDS011;61064;51.654;5.476;2024-01-06T13:11:10;13.13;;;5.60;;
72920;SDS011;61064;51.654;5.476;2024-01-06T13:13:36;12.80;;;5.77;;
72920;SDS011;61064;51.654;5.476;2024-01-06T13:16:01;10.97;;;4.70;;
72920;SDS011;61064;51.654;5.476;2024-01-06T13:18:28;11.07;;;5.03;;
72920;SDS011;61064;51.654;5.476;2024-01-06T13:20:54;10.52;;;4.70;;
72920;SDS011;61064;51.654;5.476;2024-01-06T13:23:20;11.73;;;4.57;;
72920;SDS011;61064;51.654;5.476;2024-01-06T13:25:45;9.90;;;4.10;;
72920;SDS011;61064;51.654;5.476;2024-01-06T13:28:10;8.90;;;3.80;;
72920;SDS011;61064;51.654;5.476;2024-01-06T13:30:37;9.38;;;4.13;;
72920;SDS011;61064;51.654;5.476;2024-01-06T13:33:04;7.88;;;3.35;;
72920;SDS011;61064;51.654;5.476;2024-01-06T13:35:29;8.73;;;3.57;;
72920;SDS011;61064;51.654;5.476;2024-01-06T13:37:56;10.10;;;4.10;;
72920;SDS011;61064;51.654;5.476;2024-01-06T13:40:22;10.33;;;4.13;;
72920;SDS011;61064;51.654;5.476;2024-01-06T13:42:48;10.02;;;4.18;;
72920;SDS011;61064;51.654;5.476;2024-01-06T13:45:14;11.05;;;4.28;;
72920;SDS011;61064;51.654;5.476;2024-01-06T13:47:39;10.97;;;4.50;;
72920;SDS011;61064;51.654;5.476;2024-01-06T13:50:11;9.03;;;4.10;;
72920;SDS011;61064;51.654;5.476;2024-01-06T13:52:40;11.25;;;4.72;;
72920;SDS011;61064;51.654;5.476;2024-01-06T13:55:06;11.90;;;4.82;;
72920;SDS011;61064;51.654;5.476;2024-01-06T13:57:31;13.27;;;4.57;;
72920;SDS011;61064;51.654;5.476;2024-01-06T14:00:00;12.13;;;4.40;;
72920;SDS011;61064;51.654;5.476;2024-01-06T14:02:26;10.65;;;4.88;;
72920;SDS011;61064;51.654;5.476;2024-01-06T14:04:51;13.55;;;5.47;;
72920;SDS011;61064;51.654;5.476;2024-01-06T14:07:17;11.53;;;5.53;;
72920;SDS011;61064;51.654;5.476;2024-01-06T14:09:47;14.27;;;5.70;;
72920;SDS011;61064;51.654;5.476;2024-01-06T14:12:15;12.15;;;5.47;;
72920;SDS011;61064;51.654;5.476;2024-01-06T14:14:40;12.90;;;5.90;;
72920;SDS011;61064;51.654;5.476;2024-01-06T14:17:06;13.17;;;5.70;;
72920;SDS011;61064;51.654;5.476;2024-01-06T14:19:32;12.52;;;5.95;;
72920;SDS011;61064;51.654;5.476;2024-01-06T14:21:58;13.20;;;5.07;;
72920;SDS011;61064;51.654;5.476;2024-01-06T14:24:23;15.97;;;6.03;;
72920;SDS011;61064;51.654;5.476;2024-01-06T14:26:50;12.60;;;5.50;;
72920;SDS011;61064;51.654;5.476;2024-01-06T14:29:16;13.30;;;5.80;;
72920;SDS011;61064;51.654;5.476;2024-01-06T14:31:42;11.70;;;4.88;;
72920;SDS011;61064;51.654;5.476;2024-01-06T14:34:08;12.60;;;5.60;;
72920;SDS011;61064;51.654;5.476;2024-01-06T14:36:34;12.97;;;5.73;;